Time;durP1;ratioP1;P1;durP2;ratioP2;P2;SDS_P1;SDS_P2;PMS_P1;PMS_P2;Temp;Humidity;BMP_temperature;BMP_pressure;BME280_temperature;BME280_humidity;BME280_pressure;Samples;Min_cycle;Max_cycle;Signal;HPM_P1;HPM_P2
2021/12/15 00:03:28;;;;;;;148.98;65.07;;;;;;;24.20;33.58;97256.19;10357914;28;98727;-63
2021/12/15 00:08:31;;;;;;;143.60;63.17;;;;;;;24.19;33.19;97254.53;10360039;28;99736;-63
2021/12/15 00:13:37;;;;;;;144.60;60.85;;;;;;;24.15;33.52;97243.47;10367279;28;98947;-63
2021/12/15 00:18:42;;;;;;;132.52;58.03;;;;;;;24.10;33.87;97241.41;10362335;28;98633;-63
2021/12/15 00:23:46;;;;;;;124.80;55.33;;;;;;;24.07;33.33;97239.19;10357389;28;98618;-63
2021/12/15 00:28:51;;;;;;;116.85;51.05;;;;;;;24.05;33.47;97227.88;10357446;28;98731;-63
2021/12/15 00:33:55;;;;;;;110.43;50.80;;;;;;;24.02;33.62;97220.28;10360757;28;97680;-63
2021/12/15 00:38:58;;;;;;;113.13;48.10;;;;;;;23.98;33.37;97224.38;10360149;28;98914;-63
2021/12/15 00:44:02;;;;;;;97.60;46.92;;;;;;;23.99;33.52;97227.88;10363098;28;97263;-63
2021/12/15 00:49:06;;;;;;;96.97;43.55;;;;;;;23.94;33.77;97220.50;10364465;28;97005;-63
2021/12/15 00:54:10;;;;;;;93.70;41.75;;;;;;;23.92;33.60;97217.22;10360618;28;97608;-63
2021/12/15 00:59:14;;;;;;;79.22;37.90;;;;;;;23.86;33.80;97224.22;10360447;28;97317;-63
2021/12/15 01:04:20;;;;;;;86.18;38.63;;;;;;;23.86;33.46;97228.72;10359369;28;97398;-62
2021/12/15 01:09:26;;;;;;;80.70;35.63;;;;;;;23.82;33.93;97230.97;10365048;28;99021;-63
2021/12/15 01:14:36;;;;;;;73.13;35.22;;;;;;;23.81;33.90;97233.84;10366625;28;98241;-63
2021/12/15 01:19:52;;;;;;;70.45;33.63;;;;;;;23.76;33.48;97231.81;10363722;28;98841;-63
2021/12/15 01:24:58;;;;;;;62.15;30.38;;;;;;;23.72;33.61;97244.75;10366871;28;97827;-63
2021/12/15 01:30:03;;;;;;;66.80;30.63;;;;;;;23.73;33.95;97241.03;10364250;28;97789;-63
2021/12/15 01:35:07;;;;;;;60.85;28.27;;;;;;;23.67;34.04;97239.22;10365631;28;96991;-63
2021/12/15 01:40:18;;;;;;;55.33;26.13;;;;;;;23.65;33.53;97246.56;10365959;28;99758;-63
2021/12/15 01:50:44;;;;;;;52.63;24.33;;;;;;;23.59;33.70;97249.28;10369242;28;99359;-63
2021/12/15 01:55:49;;;;;;;48.53;24.35;;;;;;;23.58;33.68;97248.44;10364423;28;98805;-65
2021/12/15 02:00:56;;;;;;;;;;;;;;;23.54;33.65;97249.88;10362113;28;97227;-64
2021/12/15 02:05:59;;;;;;;47.35;21.67;;;;;;;23.52;33.93;97259.94;10361474;28;97324;-63
2021/12/15 02:11:02;;;;;;;40.92;20.67;;;;;;;23.44;33.79;97257.47;10365895;28;99476;-63
2021/12/15 02:16:08;;;;;;;43.70;20.63;;;;;;;23.44;33.39;97252.13;10365542;28;98446;-63
2021/12/15 02:21:16;;;;;;;38.17;20.13;;;;;;;23.40;33.49;97245.59;10368396;28;96864;-63
2021/12/15 02:26:22;;;;;;;35.40;17.35;;;;;;;23.37;33.49;97252.13;10366130;28;97619;-63
2021/12/15 02:31:39;;;;;;;34.60;16.58;;;;;;;23.34;33.45;97252.53;10363921;28;98434;-63
2021/12/15 02:42:05;;;;;;;31.58;16.02;;;;;;;23.25;33.44;97249.22;10361067;28;98952;-63
2021/12/15 02:47:08;;;;;;;33.08;16.83;;;;;;;23.22;33.60;97244.31;10358671;28;98393;-63
2021/12/15 02:52:12;;;;;;;32.65;16.02;;;;;;;23.20;33.40;97241.00;10368277;28;97162;-63
2021/12/15 02:57:17;;;;;;;27.85;14.32;;;;;;;23.15;33.66;97238.13;10363925;28;99240;-63
2021/12/15 03:07:50;;;;;;;24.70;13.18;;;;;;;23.03;33.45;97229.09;10363476;28;99866;-63
2021/12/15 03:18:16;;;;;;;27.58;14.18;;;;;;;22.99;33.59;97226.84;10359553;28;99226;-63
2021/12/15 03:23:26;;;;;;;29.15;14.10;;;;;;;23.00;33.38;97231.13;10361715;28;98184;-63
2021/12/15 03:34:10;;;;;;;26.30;13.63;;;;;;;22.97;33.72;97242.19;10358428;28;97491;-63
2021/12/15 03:39:14;;;;;;;23.30;13.48;;;;;;;22.95;33.70;97222.94;10363693;28;97651;-63
2021/12/15 03:44:17;;;;;;;23.23;12.65;;;;;;;22.94;34.06;97223.97;10357501;28;98391;-63
2021/12/15 03:49:20;;;;;;;22.63;13.10;;;;;;;22.91;33.66;97226.22;10360868;28;97312;-63
2021/12/15 03:54:25;;;;;;;22.20;12.70;;;;;;;22.88;33.80;97229.28;10361467;28;96996;-63
2021/12/15 03:59:28;;;;;;;20.73;11.98;;;;;;;22.86;33.75;97229.47;10361472;28;97638;-63
2021/12/15 04:04:31;;;;;;;20.33;12.05;;;;;;;22.77;34.02;97214.72;10360810;28;98973;-63
2021/12/15 04:09:36;;;;;;;20.88;11.88;;;;;;;22.82;33.98;97233.53;10359485;28;98729;-63
2021/12/15 04:14:44;;;;;;;21.50;12.05;;;;;;;22.80;34.05;97232.94;10361745;28;97620;-63
2021/12/15 04:19:47;;;;;;;20.05;12.18;;;;;;;22.71;34.23;97223.50;10361397;28;100298;-62
2021/12/15 04:24:52;;;;;;;18.30;11.23;;;;;;;22.75;33.79;97232.72;10356981;28;98155;-62
2021/12/15 04:29:55;;;;;;;20.80;12.10;;;;;;;22.68;33.91;97226.53;10360339;28;99158;-63
2021/12/15 04:34:58;;;;;;;19.55;11.60;;;;;;;22.70;34.21;97232.50;10358863;28;97501;-62
2021/12/15 04:40:06;;;;;;;17.63;10.20;;;;;;;22.71;34.27;97231.47;10359086;28;98882;-62
2021/12/15 04:45:11;;;;;;;19.27;10.70;;;;;;;22.64;34.37;97226.13;10364350;28;98174;-62
2021/12/15 04:50:14;;;;;;;20.02;10.13;;;;;;;22.63;34.08;97224.50;10370186;28;96970;-62
2021/12/15 04:55:20;;;;;;;17.95;10.35;;;;;;;22.62;34.37;97223.66;10373259;28;97019;-62
2021/12/15 05:00:28;;;;;;;16.33;9.70;;;;;;;22.60;34.12;97225.72;10365819;28;99213;-62
2021/12/15 05:05:33;;;;;;;13.38;8.80;;;;;;;22.54;34.08;97231.81;10369157;28;99055;-62
2021/12/15 05:10:37;;;;;;;;;;;;;;;22.57;34.26;97241.25;10366449;28;97531;-63
2021/12/15 05:15:40;;;;;;;;;;;;;;;22.56;34.25;97244.94;10366881;28;97023;-63
2021/12/15 05:20:47;;;;;;;12.57;8.05;;;;;;;22.48;34.25;97235.28;10364152;28;98740;-63
2021/12/15 05:25:52;;;;;;;16.15;8.68;;;;;;;22.50;34.17;97245.75;10364667;28;97587;-63
2021/12/15 05:30:56;;;;;;;;;;;;;;;22.50;34.87;97251.88;10364172;28;102002;-64
2021/12/15 05:35:59;;;;;;;13.98;8.07;;;;;;;22.40;34.45;97254.06;10365144;28;98511;-64
2021/12/15 05:41:03;;;;;;;13.00;8.32;;;;;;;22.40;34.42;97254.06;10366282;28;97243;-64
2021/12/15 05:46:06;;;;;;;12.05;7.45;;;;;;;22.43;34.66;97262.47;10352978;28;98506;-64
2021/12/15 05:51:09;;;;;;;12.68;7.93;;;;;;;22.46;34.60;97261.31;10367328;28;97724;-64
2021/12/15 05:56:14;;;;;;;11.65;7.15;;;;;;;22.43;34.17;97262.47;10354208;28;96961;-63
2021/12/15 06:01:18;;;;;;;11.45;7.55;;;;;;;22.48;34.56;97269.91;10363649;28;97788;-63
2021/12/15 06:06:21;;;;;;;;;;;;;;;22.52;34.33;97276.47;10364209;28;100086;-63
2021/12/15 06:11:26;;;;;;;10.90;7.03;;;;;;;22.53;34.27;97278.13;10358742;28;99144;-64
2021/12/15 06:16:29;;;;;;;10.75;7.13;;;;;;;22.51;34.34;97276.66;10364068;28;97626;-64
2021/12/15 06:21:32;;;;;;;10.82;7.25;;;;;;;22.52;34.53;97265.00;10356756;28;98471;-64
2021/12/15 06:26:37;;;;;;;11.35;7.18;;;;;;;22.59;34.35;97271.19;10356436;28;97266;-64
2021/12/15 06:31:41;;;;;;;10.40;6.65;;;;;;;22.60;34.24;97264.84;10358270;28;99596;-64
2021/12/15 06:36:44;;;;;;;10.70;6.88;;;;;;;22.62;34.02;97265.47;10356465;28;98290;-63
2021/12/15 06:41:51;;;;;;;10.90;5.78;;;;;;;22.69;34.09;97260.16;10360138;28;96964;-63
2021/12/15 06:47:20;;;;;;;;;;;;;;;22.75;34.21;97265.50;10357906;28;97499;-63
2021/12/15 07:03:06;;;;;;;10.15;6.13;;;;;;;22.93;33.96;97267.59;10362353;28;98364;-63
2021/12/15 07:08:10;;;;;;;7.45;5.28;;;;;;;22.93;34.04;97267.59;10369297;28;99972;-63
2021/12/15 07:13:15;;;;;;;8.27;5.45;;;;;;;22.94;33.81;97271.09;10368214;28;98209;-64
2021/12/15 07:18:26;;;;;;;8.75;5.60;;;;;;;22.94;34.07;97285.25;10365017;28;97574;-63
2021/12/15 07:23:29;;;;;;;8.15;5.68;;;;;;;22.93;34.10;97291.59;10361711;28;97063;-63
2021/12/15 07:28:34;;;;;;;9.35;5.68;;;;;;;22.94;34.21;97293.25;10354491;28;96900;-64
2021/12/15 07:33:36;;;;;;;;;;;;;;;22.99;34.26;97295.28;10356367;28;97566;-64
2021/12/15 07:38:41;;;;;;;8.30;5.57;;;;;;;22.99;33.98;97298.78;10351161;28;97349;-64
2021/12/15 07:43:45;;;;;;;8.23;5.18;;;;;;;23.10;34.00;97307.19;10361286;28;97102;-64
2021/12/15 07:48:48;;;;;;;8.38;5.60;;;;;;;23.09;33.83;97310.91;10362555;28;97240;-63
2021/12/15 07:53:52;;;;;;;8.57;5.70;;;;;;;23.07;34.03;97296.97;10360662;28;98128;-64
2021/12/15 07:58:56;;;;;;;8.23;5.07;;;;;;;23.09;33.78;97314.38;10357706;28;96988;-64
2021/12/15 08:03:59;;;;;;;9.70;5.90;;;;;;;23.14;33.40;97313.78;10361766;28;96897;-64
2021/12/15 08:09:02;;;;;;;6.85;4.47;;;;;;;23.14;33.55;97316.47;10363660;28;97114;-64
2021/12/15 08:14:07;;;;;;;7.10;4.85;;;;;;;23.17;33.47;97311.53;10378780;28;96869;-63
2021/12/15 08:19:14;;;;;;;7.43;4.90;;;;;;;23.22;33.66;97315.44;10359569;28;96828;-64
2021/12/15 08:24:17;;;;;;;5.90;4.82;;;;;;;23.22;33.25;97310.94;10357213;28;99170;-64
2021/12/15 08:29:21;;;;;;;7.15;5.22;;;;;;;23.21;33.29;97314.63;10349499;28;97065;-64
2021/12/15 08:34:24;;;;;;;7.70;5.07;;;;;;;23.20;32.89;97312.97;10363695;28;97200;-64
2021/12/15 08:39:27;;;;;;;6.55;4.80;;;;;;;23.10;32.80;97315.19;10362631;28;99120;-64
2021/12/15 08:44:31;;;;;;;8.27;4.78;;;;;;;23.09;32.85;97309.06;10369961;28;96858;-65
2021/12/15 08:49:34;;;;;;;;;;;;;;;23.13;33.19;97299.66;10364916;28;99592;-64
2021/12/15 08:54:37;;;;;;;6.75;4.97;;;;;;;23.13;32.67;97296.16;10365264;28;97319;-64
2021/12/15 08:59:42;;;;;;;7.20;4.68;;;;;;;23.10;32.58;97289.38;10364558;28;99456;-63
2021/12/15 09:04:45;;;;;;;6.60;4.65;;;;;;;23.17;32.76;97305.41;10355926;28;96915;-64
2021/12/15 09:09:48;;;;;;;7.20;5.10;;;;;;;23.17;32.47;97310.72;10365273;28;96939;-64
2021/12/15 09:14:53;;;;;;;6.57;4.57;;;;;;;23.08;32.17;97311.91;10368854;28;98073;-64
2021/12/15 09:19:56;;;;;;;6.38;4.50;;;;;;;23.12;32.49;97318.50;10357138;28;97327;-64
2021/12/15 09:24:59;;;;;;;7.40;5.22;;;;;;;23.18;32.11;97315.84;10363642;28;99054;-64
2021/12/15 09:30:05;;;;;;;6.35;4.43;;;;;;;23.21;31.90;97327.94;10365783;28;97753;-64
2021/12/15 09:35:10;;;;;;;6.18;4.65;;;;;;;23.19;31.98;97330.00;10369344;28;98033;-64
2021/12/15 09:40:14;;;;;;;6.88;4.50;;;;;;;23.25;32.07;97339.03;10369436;28;97449;-64
2021/12/15 09:45:31;;;;;;;5.75;4.40;;;;;;;23.28;31.72;97328.00;10360149;28;98120;-64
2021/12/15 10:06:53;;;;;;;6.82;4.95;;;;;;;23.07;31.76;97320.94;10371957;28;97101;-64
2021/12/15 10:12:19;;;;;;;8.20;5.20;;;;;;;23.06;31.82;97317.44;10370235;28;97368;-64
2021/12/15 10:17:30;;;;;;;7.25;4.95;;;;;;;23.06;31.82;97313.97;10364210;28;100982;-64
2021/12/15 10:22:38;;;;;;;6.68;4.70;;;;;;;23.17;31.60;97316.88;10362699;28;97064;-64
2021/12/15 10:27:46;;;;;;;6.45;4.72;;;;;;;23.27;31.44;97305.88;10364624;28;97081;-65
2021/12/15 10:32:57;;;;;;;6.50;4.45;;;;;;;23.35;31.46;97307.50;10363875;28;97012;-65
2021/12/15 10:38:15;;;;;;;8.10;4.80;;;;;;;23.37;31.42;97289.44;10359786;28;97265;-65
2021/12/15 10:43:19;;;;;;;6.78;4.88;;;;;;;23.44;31.31;97287.59;10368957;28;97794;-64
2021/12/15 10:48:35;;;;;;;5.90;4.70;;;;;;;23.45;31.54;97283.94;10357909;28;97207;-64
2021/12/15 10:53:38;;;;;;;6.50;4.55;;;;;;;23.42;31.85;97270.19;10357385;28;97066;-64
2021/12/15 10:58:44;;;;;;;5.55;4.47;;;;;;;23.45;31.28;97273.25;10372090;28;100983;-65
2021/12/15 11:03:48;;;;;;;6.40;4.75;;;;;;;23.48;31.64;97274.69;10350801;28;97214;-64
2021/12/15 11:09:16;;;;;;;7.72;5.45;;;;;;;23.42;31.24;97259.53;10370309;28;97096;-64
2021/12/15 11:14:29;;;;;;;6.35;4.18;;;;;;;23.40;31.62;97256.25;10357222;28;97317;-65
2021/12/15 11:19:43;;;;;;;6.50;4.82;;;;;;;23.45;31.92;97267.13;10360906;28;97431;-65
2021/12/15 11:24:46;;;;;;;6.22;4.88;;;;;;;23.46;31.44;97266.06;10357876;28;97211;-65
2021/12/15 11:29:49;;;;;;;6.85;4.95;;;;;;;23.51;31.54;97274.28;10356104;28;97734;-66
2021/12/15 11:35:03;;;;;;;6.88;5.18;;;;;;;23.59;31.25;97282.09;10356977;28;99538;-66
2021/12/15 11:40:07;;;;;;;7.65;4.95;;;;;;;23.67;31.53;97276.56;10368254;28;96977;-67
2021/12/15 11:45:14;;;;;;;6.57;4.47;;;;;;;23.59;31.59;97260.75;10355337;28;97626;-66
2021/12/15 11:50:21;;;;;;;6.00;4.32;;;;;;;23.50;31.74;97270.00;10357490;28;101101;-66
2021/12/15 11:55:28;;;;;;;5.03;4.28;;;;;;;23.43;31.53;97255.81;10361095;28;96847;-66
2021/12/15 12:00:31;;;;;;;6.50;4.40;;;;;;;23.34;31.63;97256.03;10361054;28;96996;-66
2021/12/15 12:05:38;;;;;;;7.10;4.90;;;;;;;23.29;31.50;97261.16;10365485;28;96954;-66
2021/12/15 12:10:46;;;;;;;5.30;4.30;;;;;;;23.37;31.81;97258.28;10359696;28;100552;-66
2021/12/15 12:15:52;;;;;;;5.88;4.60;;;;;;;23.45;31.73;97259.94;10365876;28;97409;-66
2021/12/15 12:20:59;;;;;;;6.80;4.63;;;;;;;23.44;31.50;97252.94;10358189;28;97079;-64
2021/12/15 12:26:05;;;;;;;5.88;4.22;;;;;;;23.53;31.37;97240.22;10359177;28;98938;-64
2021/12/15 12:31:10;;;;;;;5.45;4.03;;;;;;;23.55;31.19;97246.16;10364993;28;97042;-64
2021/12/15 12:36:18;;;;;;;7.03;4.82;;;;;;;23.59;31.60;97244.75;10366619;28;96951;-64
2021/12/15 12:41:24;;;;;;;6.20;4.55;;;;;;;23.57;31.08;97244.16;10365079;28;97069;-64
2021/12/15 13:11:34;;;;;;;2.13;1.70;;;;;;;44.93;19.50;97244.41;10436690;27;96861;-71
2021/12/15 13:16:41;;;;;;;1.77;1.52;;;;;;;39.87;20.27;97247.50;10440689;27;97256;-64
2021/12/15 13:29:49;;;;;;;2.50;2.30;;;;;;;30.97;29.94;97244.22;10401366;27;97320;-75
2021/12/15 13:34:52;;;;;;;0.70;0.60;;;;;;;25.57;37.90;97245.22;10364665;28;97094;-73
2021/12/15 13:39:56;;;;;;;0.47;0.40;;;;;;;23.87;41.33;97249.03;10357494;27;97370;-71
2021/12/15 13:45:01;;;;;;;2.53;1.83;;;;;;;23.55;42.09;97243.50;10331515;27;96946;-74
2021/12/15 13:50:17;;;;;;;2.47;1.70;;;;;;;23.72;41.78;97233.25;10346811;28;96967;-74
2021/12/15 13:55:23;;;;;;;2.95;1.95;;;;;;;23.71;41.78;97242.28;10355235;28;97833;-71
2021/12/15 14:00:31;;;;;;;2.88;1.90;;;;;;;23.64;41.89;97239.63;10366578;28;101200;-71
2021/12/15 14:05:39;;;;;;;2.63;1.83;;;;;;;23.59;42.08;97243.94;10346056;28;97366;-72
2021/12/15 14:11:02;;;;;;;2.72;1.73;;;;;;;23.58;42.56;97251.09;10361842;28;97002;-72
2021/12/15 14:16:07;;;;;;;2.43;1.70;;;;;;;23.53;42.74;97250.91;10370397;28;97015;-72
2021/12/15 14:21:14;;;;;;;2.47;1.67;;;;;;;23.49;43.16;97250.50;10366292;28;97377;-74
2021/12/15 14:26:22;;;;;;;1.80;1.40;;;;;;;23.48;43.26;97258.69;10356672;28;96864;-72
2021/12/15 14:31:31;;;;;;;2.95;1.70;;;;;;;23.45;43.87;97253.78;10357909;28;99282;-72
2021/12/15 14:36:37;;;;;;;2.55;1.75;;;;;;;23.45;43.81;97256.44;10364366;28;97390;-73
2021/12/15 14:41:43;;;;;;;1.80;1.35;;;;;;;23.46;44.11;97253.56;10343013;28;97075;-72
2021/12/15 14:46:51;;;;;;;2.53;1.60;;;;;;;23.44;44.23;97257.47;10329838;28;97077;-72
2021/12/15 14:51:56;;;;;;;3.75;1.88;;;;;;;23.42;44.29;97256.84;10332911;28;96852;-75
2021/12/15 14:57:02;;;;;;;2.25;1.70;;;;;;;23.44;44.40;97260.13;10344599;28;98217;-74
2021/12/15 15:02:09;;;;;;;1.67;1.40;;;;;;;23.46;44.39;97266.06;10341440;28;96948;-75
2021/12/15 15:07:14;;;;;;;2.50;1.70;;;;;;;23.43;44.48;97270.00;10338451;28;97413;-73
2021/12/15 15:12:20;;;;;;;2.28;1.70;;;;;;;23.42;44.97;97280.84;10338666;28;97946;-74
2021/12/15 15:17:31;;;;;;;2.03;1.40;;;;;;;23.45;45.18;97280.44;10332141;28;97334;-75
2021/12/15 15:22:34;;;;;;;2.40;1.50;;;;;;;23.46;44.75;97290.06;10343754;28;97613;-75
2021/12/15 15:27:38;;;;;;;2.58;1.67;;;;;;;23.44;45.25;97294.78;10339297;28;97348;-72
2021/12/15 15:32:44;;;;;;;2.33;1.60;;;;;;;23.45;44.68;97296.47;10329265;28;98846;-73
2021/12/15 15:37:47;;;;;;;2.25;1.70;;;;;;;23.38;45.13;97297.25;10323258;28;97823;-74
2021/12/15 15:42:57;;;;;;;3.03;1.70;;;;;;;23.27;45.27;97307.66;10331386;28;97161;-75
2021/12/15 15:48:04;;;;;;;1.95;1.40;;;;;;;23.25;44.78;97305.19;10322280;28;103543;-73
2021/12/15 15:53:08;;;;;;;3.30;1.15;;;;;;;23.30;44.75;97309.97;10323910;28;96780;-74
2021/12/15 15:58:12;;;;;;;1.70;1.38;;;;;;;23.27;45.05;97305.88;10320820;28;96859;-74
2021/12/15 16:03:22;;;;;;;2.05;1.50;;;;;;;23.25;44.70;97302.53;10318861;28;97036;-74
2021/12/15 16:08:27;;;;;;;1.73;1.50;;;;;;;23.22;44.93;97313.63;10310543;28;96845;-73
2021/12/15 16:13:32;;;;;;;2.20;1.40;;;;;;;23.20;44.97;97307.63;10327688;28;96755;-73
2021/12/15 16:18:42;;;;;;;2.00;1.50;;;;;;;23.23;45.27;97315.25;10319734;28;98529;-73
2021/12/15 16:23:50;;;;;;;2.28;1.45;;;;;;;23.23;45.13;97323.25;10337122;28;96891;-72
2021/12/15 16:28:55;;;;;;;2.35;1.75;;;;;;;23.25;45.08;97329.19;10328978;28;98852;-72
2021/12/15 16:33:59;;;;;;;;;;;;;;;23.32;44.68;97323.91;10330389;28;97254;-73
2021/12/15 16:39:05;;;;;;;2.03;1.27;;;;;;;23.38;45.05;97329.25;10331895;28;98459;-71
2021/12/15 16:44:19;;;;;;;2.03;1.42;;;;;;;23.38;45.02;97331.91;10324521;28;97195;-76
2021/12/15 16:49:31;;;;;;;2.33;1.50;;;;;;;23.44;44.55;97342.81;10329669;28;96836;-74
2021/12/15 16:54:38;;;;;;;2.50;1.27;;;;;;;23.43;44.28;97341.13;10324302;28;96798;-75
2021/12/15 16:59:44;;;;;;;1.77;1.30;;;;;;;23.39;43.80;97346.06;10312089;28;97628;-74
2021/12/15 17:04:51;;;;;;;2.10;1.40;;;;;;;23.32;43.73;97343.38;10329425;28;98483;-75
2021/12/15 17:09:58;;;;;;;1.52;1.17;;;;;;;23.27;44.04;97347.66;10324399;28;97706;-75
2021/12/15 17:15:07;;;;;;;1.63;1.20;;;;;;;23.22;43.88;97353.59;10331609;28;101941;-75
2021/12/15 17:20:16;;;;;;;1.98;1.33;;;;;;;23.15;43.84;97355.41;10330932;28;100389;-74
2021/12/15 17:25:21;;;;;;;1.20;0.98;;;;;;;23.12;43.99;97353.16;10339541;28;97255;-74
2021/12/15 17:30:27;;;;;;;1.33;1.20;;;;;;;23.07;43.74;97363.59;10332992;28;97216;-75
2021/12/15 17:35:34;;;;;;;4.95;1.50;;;;;;;22.98;43.87;97361.09;10330825;28;96845;-75
2021/12/15 17:40:37;;;;;;;6.53;2.80;;;;;;;22.93;43.97;97368.84;10331800;28;97532;-75
2021/12/15 17:45:43;;;;;;;14.73;5.22;;;;;;;22.87;44.00;97364.31;10332265;28;97174;-72
2021/12/15 17:50:50;;;;;;;15.93;4.82;;;;;;;22.86;44.38;97368.00;10323711;28;98614;-74
2021/12/15 17:55:53;;;;;;;10.43;4.10;;;;;;;22.85;44.18;97376.19;10316553;28;97350;-75
2021/12/15 18:01:01;;;;;;;12.03;4.03;;;;;;;22.83;44.28;97389.72;10329728;28;97185;-75
2021/12/15 18:06:09;;;;;;;8.90;3.90;;;;;;;22.79;44.44;97380.50;10328624;28;96952;-79
2021/12/15 18:11:12;;;;;;;7.60;3.33;;;;;;;22.76;44.89;97383.53;10326689;28;96760;-75
2021/12/15 18:16:16;;;;;;;7.67;3.50;;;;;;;22.73;45.02;97382.06;10337437;28;96846;-74
2021/12/15 18:21:25;;;;;;;6.63;2.95;;;;;;;22.72;44.94;97382.28;10334368;28;97376;-76
2021/12/15 18:26:30;;;;;;;9.30;3.63;;;;;;;22.71;45.11;97391.28;10338815;28;96906;-76
2021/12/15 18:31:37;;;;;;;7.22;3.30;;;;;;;22.71;45.20;97384.13;10346436;28;96813;-76
2021/12/15 18:36:44;;;;;;;7.40;2.90;;;;;;;22.70;45.22;97400.28;10319751;28;97202;-76
2021/12/15 18:41:49;;;;;;;4.72;2.58;;;;;;;22.68;45.21;97412.97;10322085;28;97316;-75
2021/12/15 18:46:53;;;;;;;;;;;;;;;22.66;45.07;97415.03;10309316;28;98408;-75
2021/12/15 18:51:59;;;;;;;6.63;2.72;;;;;;;22.70;45.01;97418.94;10340989;28;97213;-76
2021/12/15 18:57:07;;;;;;;4.25;2.38;;;;;;;22.71;45.06;97417.94;10337606;28;97077;-81
2021/12/15 19:02:15;;;;;;;4.75;2.33;;;;;;;22.70;44.68;97421.59;10321402;28;96827;-77
2021/12/15 19:07:19;;;;;;;4.97;2.40;;;;;;;22.72;45.06;97427.59;10313607;28;96975;-78
2021/12/15 19:12:23;;;;;;;4.25;2.35;;;;;;;22.74;45.16;97438.84;10331712;28;98156;-77
2021/12/15 19:17:26;;;;;;;3.70;2.17;;;;;;;22.77;44.88;97447.28;10328379;28;97381;-75
2021/12/15 19:22:31;;;;;;;3.50;2.30;;;;;;;22.79;45.13;97449.75;10326555;28;97064;-76
2021/12/15 19:27:34;;;;;;;3.25;1.98;;;;;;;22.75;45.20;97448.47;10333983;28;97117;-76
2021/12/15 19:32:37;;;;;;;6.23;2.40;;;;;;;22.74;45.18;97453.00;10331737;28;98051;-76
2021/12/15 19:37:41;;;;;;;4.68;2.00;;;;;;;22.73;45.42;97451.34;10332459;28;97016;-76
2021/12/15 19:42:44;;;;;;;4.63;1.85;;;;;;;22.74;45.46;97455.66;10331814;28;97864;-72
2021/12/15 19:47:47;;;;;;;5.80;2.10;;;;;;;22.79;45.59;97463.88;10323575;28;96879;-74
2021/12/15 19:52:53;;;;;;;4.75;2.33;;;;;;;22.88;45.74;97467.22;10315240;28;96805;-72
2021/12/15 19:57:56;;;;;;;4.88;2.28;;;;;;;22.98;45.86;97475.69;10320156;28;97078;-73
2021/12/15 20:02:59;;;;;;;4.40;2.10;;;;;;;23.06;45.49;97488.00;10343098;28;97486;-74
2021/12/15 20:08:06;;;;;;;4.55;2.33;;;;;;;23.11;45.91;97492.75;10317375;28;96971;-75
2021/12/15 20:13:12;;;;;;;3.53;2.15;;;;;;;23.09;46.06;97500.13;10330536;28;96904;-76
2021/12/15 20:18:16;;;;;;;4.47;2.17;;;;;;;23.06;46.43;97500.53;10323586;28;96947;-74
2021/12/15 20:23:22;;;;;;;6.63;2.83;;;;;;;23.06;46.14;97503.19;10320216;28;97152;-72
2021/12/15 20:28:25;;;;;;;5.40;2.88;;;;;;;23.06;46.52;97508.50;10320724;28;97835;-74
2021/12/15 20:33:31;;;;;;;4.53;2.42;;;;;;;23.06;46.44;97506.66;10329397;28;97733;-73
2021/12/15 20:38:35;;;;;;;5.57;2.42;;;;;;;23.08;46.35;97509.13;10330987;28;96934;-74
2021/12/15 20:43:40;;;;;;;4.55;2.20;;;;;;;23.11;46.61;97519.41;10326223;28;97543;-74
2021/12/15 20:48:43;;;;;;;4.47;2.88;;;;;;;23.22;46.40;97521.53;10334900;28;97053;-73
2021/12/15 20:53:49;;;;;;;5.43;2.90;;;;;;;23.30;45.77;97516.06;10329485;28;98099;-75
2021/12/15 20:58:52;;;;;;;4.63;2.60;;;;;;;23.33;45.87;97518.34;10324664;28;96965;-76
2021/12/15 21:03:56;;;;;;;;;;;;;;;23.36;45.91;97517.13;10331139;28;96808;-74
2021/12/15 21:09:05;;;;;;;6.13;4.20;;;;;;;23.37;45.96;97535.56;10326672;28;96915;-77
2021/12/15 21:14:12;;;;;;;8.10;5.18;;;;;;;23.35;45.96;97521.63;10314785;28;97130;-74
2021/12/15 21:19:18;;;;;;;6.70;4.28;;;;;;;23.37;45.71;97524.91;10312455;28;99054;-77
2021/12/15 21:24:23;;;;;;;24.23;11.13;;;;;;;23.39;45.86;97527.38;10328380;28;97030;-78
2021/12/15 21:29:29;;;;;;;24.45;11.82;;;;;;;23.45;45.40;97525.78;10317605;28;97654;-77
2021/12/15 21:34:32;;;;;;;18.05;7.90;;;;;;;23.52;45.82;97538.13;10334226;28;98606;-77
2021/12/15 21:39:40;;;;;;;11.65;7.70;;;;;;;23.29;42.55;97543.75;10323010;28;101187;-75
2021/12/15 21:44:43;;;;;;;9.98;8.20;;;;;;;22.19;38.90;97545.91;10343924;28;96950;-76
2021/12/15 21:49:46;;;;;;;9.30;8.27;;;;;;;21.19;37.62;97547.34;10348972;28;98471;-73
2021/12/15 21:54:50;;;;;;;7.28;6.13;;;;;;;20.47;38.81;97542.50;10331203;28;98582;-77
2021/12/15 21:59:53;;;;;;;6.38;5.20;;;;;;;20.53;37.60;97536.50;10320324;28;97249;-75
2021/12/15 22:04:56;;;;;;;6.32;5.13;;;;;;;20.80;38.11;97552.88;10325261;28;97570;-76
2021/12/15 22:10:00;;;;;;;8.30;5.72;;;;;;;20.84;37.05;97554.16;10338177;28;98026;-76
2021/12/15 22:15:05;;;;;;;8.95;6.85;;;;;;;20.70;36.18;97556.59;10323350;28;97554;-76
2021/12/15 22:20:12;;;;;;;7.73;6.67;;;;;;;20.51;35.64;97559.72;10339184;28;96773;-76
2021/12/15 22:25:17;;;;;;;6.47;5.45;;;;;;;20.29;35.78;97559.56;10331266;28;96910;-76
2021/12/15 22:30:21;;;;;;;7.10;6.10;;;;;;;20.10;35.76;97552.91;10329357;28;97453;-75
2021/12/15 22:35:27;;;;;;;6.85;4.95;;;;;;;20.00;36.42;97547.81;10331831;28;96937;-76
2021/12/15 22:40:32;;;;;;;5.50;3.80;;;;;;;20.14;36.82;97551.53;10362102;28;97177;-75
2021/12/15 22:45:35;;;;;;;;;;;;;;;20.26;37.26;97556.44;10327748;28;97181;-77
2021/12/15 22:50:38;;;;;;;3.80;2.67;;;;;;;20.44;37.59;97564.09;10335619;28;96908;-75
2021/12/15 22:55:42;;;;;;;3.35;2.25;;;;;;;20.62;38.73;97571.78;10329331;28;98171;-77
2021/12/15 23:00:49;;;;;;;3.20;2.40;;;;;;;20.70;39.65;97569.88;10327810;28;97240;-74
2021/12/15 23:05:54;;;;;;;2.40;1.85;;;;;;;20.80;39.88;97569.63;10333758;28;98532;-75
2021/12/15 23:11:04;;;;;;;2.83;1.80;;;;;;;20.89;40.59;97567.72;10338378;28;96985;-75
2021/12/15 23:16:09;;;;;;;2.28;1.70;;;;;;;21.00;41.41;97569.09;10325072;28;98595;-78
2021/12/15 23:21:12;;;;;;;2.17;1.60;;;;;;;21.07;41.40;97570.88;10342484;28;98395;-78
2021/12/15 23:26:18;;;;;;;1.67;1.30;;;;;;;21.09;42.25;97568.84;10342732;28;98383;-78
2021/12/15 23:31:24;;;;;;;2.85;1.50;;;;;;;21.11;42.74;97574.81;10342539;28;98662;-78
2021/12/15 23:36:27;;;;;;;1.70;1.13;;;;;;;21.15;43.18;97579.78;10339313;28;96780;-78
